CBR weather

Canberra International Airport
Canberra, Australian Capital Territory, Australia

Public forecast

Using degrees Celsius for public forecast. Weather courtesy of forecast.io.

METAR (pilot weather report)

Retrieved 2019/02/20 13:00 UTC (4 minutes ago):

YSCB 201300Z AUTO 14005KT 9999 // OVC019 18/14 Q1016 RF00.0/000.0

TAF (pilot weather forecast)

Retrieved 2019/02/20 12:00 UTC (1 hour ago):

TAF YSCB 201102Z 2012/2112 11008KT 9999 BKN020 BECMG 2021/2023 08008KT 9999 SCT030 FM210100 06010KT 9999 SCT045 BECMG 2107/2108 09015G25KT 9999 FEW030 BECMG 2109/2111 10008KT 9999 BKN020